sensor_id;sensor_type;location;lat;lon;timestamp;pressure;altitude;pressure_sealevel;temperature;humidity
52625;BME280;38519;52.540;13.410;2022-12-05T00:01:57;101171.41;;;2.02;100.00
52625;BME280;38519;52.540;13.410;2022-12-05T00:04:23;101163.38;;;1.92;100.00
52625;BME280;38519;52.540;13.410;2022-12-05T00:06:49;101156.28;;;2.12;100.00
52625;BME280;38519;52.540;13.410;2022-12-05T00:09:14;101155.19;;;2.10;100.00
52625;BME280;38519;52.540;13.410;2022-12-05T00:11:41;101165.59;;;1.96;100.00
52625;BME280;38519;52.540;13.410;2022-12-05T00:14:08;101164.53;;;1.87;100.00
52625;BME280;38519;52.540;13.410;2022-12-05T00:16:36;101167.47;;;1.82;100.00
52625;BME280;38519;52.540;13.410;2022-12-05T00:19:04;101159.38;;;1.87;100.00
52625;BME280;38519;52.540;13.410;2022-12-05T00:21:34;101166.75;;;1.84;100.00
52625;BME280;38519;52.540;13.410;2022-12-05T00:24:01;101169.78;;;2.03;100.00
52625;BME280;38519;52.540;13.410;2022-12-05T00:26:27;101171.22;;;2.00;100.00
52625;BME280;38519;52.540;13.410;2022-12-05T00:28:53;101173.25;;;2.03;100.00
52625;BME280;38519;52.540;13.410;2022-12-05T00:31:21;101169.78;;;2.03;100.00
52625;BME280;38519;52.540;13.410;2022-12-05T00:33:47;101170.28;;;2.07;100.00
52625;BME280;38519;52.540;13.410;2022-12-05T00:36:21;101171.66;;;2.19;100.00
52625;BME280;38519;52.540;13.410;2022-12-05T00:38:47;101175.47;;;2.00;100.00
52625;BME280;38519;52.540;13.410;2022-12-05T00:41:14;101177.69;;;1.97;100.00
52625;BME280;38519;52.540;13.410;2022-12-05T00:43:40;101170.75;;;2.19;100.00
52625;BME280;38519;52.540;13.410;2022-12-05T00:46:07;101172.44;;;2.18;100.00
52625;BME280;38519;52.540;13.410;2022-12-05T00:48:34;101172.03;;;1.92;100.00
52625;BME280;38519;52.540;13.410;2022-12-05T00:53:31;101166.50;;;1.96;100.00
52625;BME280;38519;52.540;13.410;2022-12-05T00:56:00;101170.28;;;2.07;100.00
52625;BME280;38519;52.540;13.410;2022-12-05T00:58:26;101169.53;;;2.08;100.00
52625;BME280;38519;52.540;13.410;2022-12-05T01:00:52;101167.47;;;2.13;100.00
52625;BME280;38519;52.540;13.410;2022-12-05T01:03:17;101163.06;;;2.12;100.00
52625;BME280;38519;52.540;13.410;2022-12-05T01:05:43;101166.34;;;2.18;100.00
52625;BME280;38519;52.540;13.410;2022-12-05T01:08:08;101168.44;;;2.06;100.00
52625;BME280;38519;52.540;13.410;2022-12-05T01:10:35;101162.25;;;1.97;100.00
52625;BME280;38519;52.540;13.410;2022-12-05T01:13:04;101152.88;;;1.97;100.00
52625;BME280;38519;52.540;13.410;2022-12-05T01:15:29;101152.66;;;2.03;100.00
52625;BME280;38519;52.540;13.410;2022-12-05T01:17:55;101151.56;;;2.01;100.00
52625;BME280;38519;52.540;13.410;2022-12-05T01:20:20;101150.03;;;2.10;100.00
52625;BME280;38519;52.540;13.410;2022-12-05T01:22:45;101149.91;;;2.02;100.00
52625;BME280;38519;52.540;13.410;2022-12-05T01:25:11;101157.09;;;1.97;100.00
52625;BME280;38519;52.540;13.410;2022-12-05T01:27:36;101142.16;;;2.02;100.00
52625;BME280;38519;52.540;13.410;2022-12-05T01:30:03;101147.94;;;2.15;100.00
52625;BME280;38519;52.540;13.410;2022-12-05T01:32:29;101143.78;;;2.08;100.00
52625;BME280;38519;52.540;13.410;2022-12-05T01:34:55;101140.03;;;2.13;100.00
52625;BME280;38519;52.540;13.410;2022-12-05T01:37:20;101140.31;;;2.00;100.00
52625;BME280;38519;52.540;13.410;2022-12-05T01:39:47;101143.84;;;2.01;100.00
52625;BME280;38519;52.540;13.410;2022-12-05T01:42:13;101142.44;;;1.89;100.00
52625;BME280;38519;52.540;13.410;2022-12-05T01:47:08;101141.38;;;2.10;100.00
52625;BME280;38519;52.540;13.410;2022-12-05T01:49:37;101142.41;;;1.96;100.00
52625;BME280;38519;52.540;13.410;2022-12-05T01:52:10;101136.03;;;2.08;100.00
52625;BME280;38519;52.540;13.410;2022-12-05T01:54:38;101132.94;;;2.04;100.00
52625;BME280;38519;52.540;13.410;2022-12-05T01:57:07;101135.22;;;1.93;100.00
52625;BME280;38519;52.540;13.410;2022-12-05T01:59:37;101137.44;;;1.97;100.00
52625;BME280;38519;52.540;13.410;2022-12-05T02:02:05;101128.22;;;1.99;100.00
52625;BME280;38519;52.540;13.410;2022-12-05T02:04:37;101130.53;;;2.05;100.00
52625;BME280;38519;52.540;13.410;2022-12-05T02:07:06;101137.56;;;1.99;100.00
52625;BME280;38519;52.540;13.410;2022-12-05T02:09:32;101137.19;;;2.03;100.00
52625;BME280;38519;52.540;13.410;2022-12-05T02:11:59;101137.19;;;2.03;100.00
52625;BME280;38519;52.540;13.410;2022-12-05T02:14:39;101139.47;;;1.93;100.00
52625;BME280;38519;52.540;13.410;2022-12-05T02:28:28;101129.28;;;2.25;100.00
52625;BME280;38519;52.540;13.410;2022-12-05T02:30:40;101129.53;;;1.96;100.00
52625;BME280;38519;52.540;13.410;2022-12-05T02:36:02;101134.63;;;2.03;100.00
52625;BME280;38519;52.540;13.410;2022-12-05T02:43:41;101136.28;;;2.03;100.00
52625;BME280;38519;52.540;13.410;2022-12-05T02:46:12;101129.69;;;1.97;100.00
52625;BME280;38519;52.540;13.410;2022-12-05T02:48:40;101135.16;;;2.00;100.00
52625;BME280;38519;52.540;13.410;2022-12-05T02:51:08;101139.22;;;2.06;100.00
52625;BME280;38519;52.540;13.410;2022-12-05T02:53:37;101137.38;;;2.05;100.00
52625;BME280;38519;52.540;13.410;2022-12-05T02:56:04;101129.75;;;2.13;100.00
52625;BME280;38519;52.540;13.410;2022-12-05T02:58:35;101118.59;;;2.29;100.00
52625;BME280;38519;52.540;13.410;2022-12-05T03:01:02;101127.00;;;2.12;100.00
52625;BME280;38519;52.540;13.410;2022-12-05T03:03:28;101117.00;;;2.22;100.00
52625;BME280;38519;52.540;13.410;2022-12-05T03:08:47;101112.34;;;2.04;100.00
52625;BME280;38519;52.540;13.410;2022-12-05T03:11:14;101114.97;;;2.19;100.00
52625;BME280;38519;52.540;13.410;2022-12-05T03:13:45;101108.75;;;2.17;100.00
52625;BME280;38519;52.540;13.410;2022-12-05T03:16:35;101107.53;;;2.07;100.00
52625;BME280;38519;52.540;13.410;2022-12-05T03:21:51;101106.56;;;2.13;100.00
52625;BME280;38519;52.540;13.410;2022-12-05T03:24:19;101113.38;;;2.13;100.00
52625;BME280;38519;52.540;13.410;2022-12-05T03:26:49;101108.81;;;2.10;100.00
52625;BME280;38519;52.540;13.410;2022-12-05T03:34:21;101115.22;;;2.14;100.00
52625;BME280;38519;52.540;13.410;2022-12-05T03:36:52;101112.66;;;2.14;100.00
52625;BME280;38519;52.540;13.410;2022-12-05T03:39:27;101114.53;;;2.08;100.00
52625;BME280;38519;52.540;13.410;2022-12-05T03:42:13;101115.41;;;2.15;100.00
52625;BME280;38519;52.540;13.410;2022-12-05T03:44:53;101108.69;;;2.25;100.00
52625;BME280;38519;52.540;13.410;2022-12-05T03:47:55;101105.63;;;2.20;100.00
52625;BME280;38519;52.540;13.410;2022-12-05T03:50:28;101114.34;;;2.06;100.00
52625;BME280;38519;52.540;13.410;2022-12-05T03:53:27;101115.44;;;2.08;100.00
52625;BME280;38519;52.540;13.410;2022-12-05T03:56:01;101109.31;;;2.15;100.00
52625;BME280;38519;52.540;13.410;2022-12-05T03:58:43;101111.44;;;2.03;100.00
52625;BME280;38519;52.540;13.410;2022-12-05T04:01:11;101103.66;;;2.10;100.00
52625;BME280;38519;52.540;13.410;2022-12-05T04:03:55;101101.13;;;2.03;100.00
52625;BME280;38519;52.540;13.410;2022-12-05T04:06:32;101113.47;;;1.98;100.00
52625;BME280;38519;52.540;13.410;2022-12-05T04:09:07;101105.19;;;2.01;100.00
52625;BME280;38519;52.540;13.410;2022-12-05T04:11:39;101101.66;;;2.08;100.00
52625;BME280;38519;52.540;13.410;2022-12-05T04:14:14;101104.13;;;2.22;100.00
52625;BME280;38519;52.540;13.410;2022-12-05T04:16:53;101099.94;;;2.15;100.00
52625;BME280;38519;52.540;13.410;2022-12-05T04:22:20;101111.88;;;2.15;100.00
52625;BME280;38519;52.540;13.410;2022-12-05T04:24:47;101110.63;;;2.11;100.00
52625;BME280;38519;52.540;13.410;2022-12-05T04:30:20;101100.81;;;2.23;100.00
52625;BME280;38519;52.540;13.410;2022-12-05T04:33:02;101101.41;;;2.13;100.00
52625;BME280;38519;52.540;13.410;2022-12-05T04:35:39;101098.06;;;2.22;100.00
52625;BME280;38519;52.540;13.410;2022-12-05T04:38:30;101110.47;;;2.10;100.00
52625;BME280;38519;52.540;13.410;2022-12-05T04:41:12;101102.88;;;2.18;100.00
52625;BME280;38519;52.540;13.410;2022-12-05T04:43:41;101100.28;;;2.18;100.00
52625;BME280;38519;52.540;13.410;2022-12-05T04:46:10;101104.56;;;2.11;100.00
52625;BME280;38519;52.540;13.410;2022-12-05T04:48:40;101105.53;;;2.04;100.00
52625;BME280;38519;52.540;13.410;2022-12-05T04:51:08;101102.91;;;2.11;100.00
52625;BME280;38519;52.540;13.410;2022-12-05T04:53:38;101101.38;;;2.21;100.00
52625;BME280;38519;52.540;13.410;2022-12-05T04:56:05;101108.75;;;2.17;100.00
52625;BME280;38519;52.540;13.410;2022-12-05T04:58:32;101101.41;;;2.13;100.00
52625;BME280;38519;52.540;13.410;2022-12-05T05:01:09;101098.56;;;2.03;100.00
52625;BME280;38519;52.540;13.410;2022-12-05T05:06:22;101099.97;;;2.08;100.00
52625;BME280;38519;52.540;13.410;2022-12-05T05:08:50;101107.59;;;1.99;100.00
52625;BME280;38519;52.540;13.410;2022-12-05T05:11:21;101104.59;;;2.04;100.00
52625;BME280;38519;52.540;13.410;2022-12-05T05:13:49;101110.97;;;2.14;100.00
52625;BME280;38519;52.540;13.410;2022-12-05T05:16:21;101102.38;;;2.07;100.00
52625;BME280;38519;52.540;13.410;2022-12-05T05:18:48;101099.69;;;1.98;100.00
52625;BME280;38519;52.540;13.410;2022-12-05T05:21:35;101104.44;;;2.02;100.00
52625;BME280;38519;52.540;13.410;2022-12-05T05:24:02;101107.19;;;2.04;100.00
52625;BME280;38519;52.540;13.410;2022-12-05T05:26:29;101105.94;;;2.00;100.00
52625;BME280;38519;52.540;13.410;2022-12-05T05:28:56;101103.53;;;2.02;100.00
52625;BME280;38519;52.540;13.410;2022-12-05T05:31:22;101107.78;;;2.01;100.00
52625;BME280;38519;52.540;13.410;2022-12-05T05:33:51;101109.41;;;2.00;100.00
52625;BME280;38519;52.540;13.410;2022-12-05T05:36:17;101107.19;;;2.04;100.00
52625;BME280;38519;52.540;13.410;2022-12-05T05:38:45;101106.84;;;2.00;100.00
52625;BME280;38519;52.540;13.410;2022-12-05T05:41:17;101110.09;;;2.07;100.00
52625;BME280;38519;52.540;13.410;2022-12-05T05:43:44;101115.25;;;2.07;100.00
52625;BME280;38519;52.540;13.410;2022-12-05T05:46:10;101103.88;;;2.05;100.00
52625;BME280;38519;52.540;13.410;2022-12-05T05:48:36;101100.75;;;2.07;100.00
52625;BME280;38519;52.540;13.410;2022-12-05T05:51:02;101109.19;;;2.06;100.00
52625;BME280;38519;52.540;13.410;2022-12-05T05:53:28;101101.38;;;1.97;100.00
52625;BME280;38519;52.540;13.410;2022-12-05T05:55:54;101103.16;;;2.06;100.00
52625;BME280;38519;52.540;13.410;2022-12-05T05:58:19;101103.94;;;1.97;100.00
52625;BME280;38519;52.540;13.410;2022-12-05T06:00:45;101108.47;;;2.07;100.00
52625;BME280;38519;52.540;13.410;2022-12-05T06:03:11;101117.13;;;2.00;100.00
52625;BME280;38519;52.540;13.410;2022-12-05T06:05:37;101116.06;;;1.98;100.00
52625;BME280;38519;52.540;13.410;2022-12-05T06:08:03;101112.56;;;1.98;100.00
52625;BME280;38519;52.540;13.410;2022-12-05T06:10:28;101125.81;;;2.01;100.00
52625;BME280;38519;52.540;13.410;2022-12-05T06:12:55;101119.72;;;2.00;100.00
52625;BME280;38519;52.540;13.410;2022-12-05T06:15:35;101113.28;;;2.04;100.00
52625;BME280;38519;52.540;13.410;2022-12-05T06:18:01;101118.44;;;2.04;100.00
52625;BME280;38519;52.540;13.410;2022-12-05T06:20:26;101119.72;;;2.00;100.00
52625;BME280;38519;52.540;13.410;2022-12-05T06:22:52;101118.06;;;2.01;100.00
52625;BME280;38519;52.540;13.410;2022-12-05T06:25:18;101118.06;;;2.01;100.00
52625;BME280;38519;52.540;13.410;2022-12-05T06:27:43;101123.97;;;2.00;100.00
52625;BME280;38519;52.540;13.410;2022-12-05T06:30:09;101126.50;;;2.07;100.00
52625;BME280;38519;52.540;13.410;2022-12-05T06:32:34;101115.69;;;2.03;100.00
52625;BME280;38519;52.540;13.410;2022-12-05T06:35:00;101120.94;;;2.11;100.00
52625;BME280;38519;52.540;13.410;2022-12-05T06:37:35;101117.44;;;2.11;100.00
52625;BME280;38519;52.540;13.410;2022-12-05T06:40:01;101121.06;;;2.20;100.00
52625;BME280;38519;52.540;13.410;2022-12-05T06:42:26;101135.59;;;2.19;100.00
52625;BME280;38519;52.540;13.410;2022-12-05T06:44:52;101130.09;;;2.16;100.00
52625;BME280;38519;52.540;13.410;2022-12-05T06:47:17;101133.47;;;2.08;100.00
52625;BME280;38519;52.540;13.410;2022-12-05T06:49:43;101134.91;;;2.13;100.00
52625;BME280;38519;52.540;13.410;2022-12-05T06:52:09;101138.59;;;2.15;100.00
52625;BME280;38519;52.540;13.410;2022-12-05T06:54:35;101141.72;;;2.13;100.00
52625;BME280;38519;52.540;13.410;2022-12-05T06:57:01;101141.19;;;2.08;100.00
52625;BME280;38519;52.540;13.410;2022-12-05T06:59:26;101136.53;;;2.20;100.00
52625;BME280;38519;52.540;13.410;2022-12-05T07:01:52;101149.97;;;2.17;100.00
52625;BME280;38519;52.540;13.410;2022-12-05T07:04:19;101146.22;;;2.30;100.00
52625;BME280;38519;52.540;13.410;2022-12-05T07:06:48;101144.47;;;2.14;100.00
52625;BME280;38519;52.540;13.410;2022-12-05T07:09:13;101142.94;;;2.24;100.00
52625;BME280;38519;52.540;13.410;2022-12-05T07:11:39;101154.16;;;2.24;100.00
52625;BME280;38519;52.540;13.410;2022-12-05T07:14:05;101143.84;;;2.24;100.00
52625;BME280;38519;52.540;13.410;2022-12-05T07:16:31;101151.88;;;2.34;100.00
52625;BME280;38519;52.540;13.410;2022-12-05T07:18:57;101156.00;;;2.25;100.00
52625;BME280;38519;52.540;13.410;2022-12-05T07:21:23;101151.38;;;2.30;100.00
52625;BME280;38519;52.540;13.410;2022-12-05T07:23:49;101154.31;;;2.26;100.00
52625;BME280;38519;52.540;13.410;2022-12-05T07:26:17;101151.06;;;2.19;100.00
52625;BME280;38519;52.540;13.410;2022-12-05T07:28:44;101156.56;;;2.23;100.00
52625;BME280;38519;52.540;13.410;2022-12-05T07:31:13;101156.97;;;2.18;100.00
52625;BME280;38519;52.540;13.410;2022-12-05T07:33:39;101160.97;;;2.24;100.00
52625;BME280;38519;52.540;13.410;2022-12-05T07:36:14;101159.38;;;2.17;100.00
52625;BME280;38519;52.540;13.410;2022-12-05T07:38:40;101165.97;;;2.15;100.00
52625;BME280;38519;52.540;13.410;2022-12-05T07:41:12;101155.47;;;2.21;100.00
52625;BME280;38519;52.540;13.410;2022-12-05T07:43:39;101158.16;;;2.29;100.00
52625;BME280;38519;52.540;13.410;2022-12-05T07:46:07;101162.22;;;2.27;100.00
52625;BME280;38519;52.540;13.410;2022-12-05T07:48:32;101157.53;;;2.16;100.00
52625;BME280;38519;52.540;13.410;2022-12-05T07:51:02;101153.88;;;2.37;100.00
52625;BME280;38519;52.540;13.410;2022-12-05T07:53:31;101159.09;;;2.30;100.00
52625;BME280;38519;52.540;13.410;2022-12-05T07:56:02;101162.28;;;2.20;100.00
52625;BME280;38519;52.540;13.410;2022-12-05T07:58:27;101156.56;;;2.23;100.00
52625;BME280;38519;52.540;13.410;2022-12-05T08:00:53;101149.91;;;2.25;100.00
52625;BME280;38519;52.540;13.410;2022-12-05T08:03:19;101155.81;;;2.24;100.00
52625;BME280;38519;52.540;13.410;2022-12-05T08:05:45;101154.16;;;2.24;100.00
52625;BME280;38519;52.540;13.410;2022-12-05T08:08:11;101161.66;;;2.30;100.00
52625;BME280;38519;52.540;13.410;2022-12-05T08:10:36;101166.84;;;2.23;100.00
52625;BME280;38519;52.540;13.410;2022-12-05T08:13:02;101161.34;;;2.19;100.00
52625;BME280;38519;52.540;13.410;2022-12-05T08:15:28;101164.47;;;2.24;100.00
52625;BME280;38519;52.540;13.410;2022-12-05T08:17:54;101169.59;;;2.24;100.00
52625;BME280;38519;52.540;13.410;2022-12-05T08:20:19;101169.97;;;2.27;100.00
52625;BME280;38519;52.540;13.410;2022-12-05T08:22:44;101167.53;;;2.36;100.00
52625;BME280;38519;52.540;13.410;2022-12-05T08:25:10;101165.16;;;2.30;100.00
52625;BME280;38519;52.540;13.410;2022-12-05T08:27:35;101163.72;;;2.25;100.00
52625;BME280;38519;52.540;13.410;2022-12-05T08:30:01;101160.38;;;2.26;100.00
52625;BME280;38519;52.540;13.410;2022-12-05T08:32:26;101167.72;;;2.30;100.00
52625;BME280;38519;52.540;13.410;2022-12-05T08:34:52;101172.72;;;2.29;100.00
52625;BME280;38519;52.540;13.410;2022-12-05T08:37:17;101166.81;;;2.30;100.00
52625;BME280;38519;52.540;13.410;2022-12-05T08:39:44;101164.53;;;2.40;100.00
52625;BME280;38519;52.540;13.410;2022-12-05T08:42:11;101160.16;;;2.32;100.00
52625;BME280;38519;52.540;13.410;2022-12-05T08:44:39;101160.16;;;2.32;100.00
52625;BME280;38519;52.540;13.410;2022-12-05T08:47:05;101164.97;;;2.29;100.00
52625;BME280;38519;52.540;13.410;2022-12-05T08:49:30;101158.69;;;2.34;100.00
52625;BME280;38519;52.540;13.410;2022-12-05T08:51:56;101158.75;;;2.27;100.00
52625;BME280;38519;52.540;13.410;2022-12-05T08:54:21;101164.63;;;2.26;100.00
52625;BME280;38519;52.540;13.410;2022-12-05T08:56:50;101163.31;;;2.29;100.00
52625;BME280;38519;52.540;13.410;2022-12-05T08:59:15;101161.66;;;2.30;100.00
52625;BME280;38519;52.540;13.410;2022-12-05T09:01:41;101157.25;;;2.29;100.00
52625;BME280;38519;52.540;13.410;2022-12-05T09:04:07;101158.56;;;2.25;100.00
52625;BME280;38519;52.540;13.410;2022-12-05T09:06:34;101154.28;;;2.33;100.00
52625;BME280;38519;52.540;13.410;2022-12-05T09:09:03;101155.03;;;2.32;100.00
52625;BME280;38519;52.540;13.410;2022-12-05T09:11:32;101153.00;;;2.29;100.00
52625;BME280;38519;52.540;13.410;2022-12-05T09:13:59;101164.97;;;2.29;100.00
52625;BME280;38519;52.540;13.410;2022-12-05T09:16:28;101160.34;;;2.33;100.00
52625;BME280;38519;52.540;13.410;2022-12-05T09:18:54;101150.84;;;2.25;100.00
52625;BME280;38519;52.540;13.410;2022-12-05T09:21:23;101151.75;;;2.26;100.00
52625;BME280;38519;52.540;13.410;2022-12-05T09:23:50;101154.16;;;2.24;100.00
52625;BME280;38519;52.540;13.410;2022-12-05T09:26:19;101153.25;;;2.24;100.00
52625;BME280;38519;52.540;13.410;2022-12-05T09:28:45;101154.09;;;2.31;100.00
52625;BME280;38519;52.540;13.410;2022-12-05T09:31:16;101152.34;;;2.23;100.00
52625;BME280;38519;52.540;13.410;2022-12-05T09:33:42;101150.41;;;2.29;100.00
52625;BME280;38519;52.540;13.410;2022-12-05T09:36:14;101151.38;;;2.30;100.00
52625;BME280;38519;52.540;13.410;2022-12-05T09:38:41;101145.22;;;2.36;100.00
52625;BME280;38519;52.540;13.410;2022-12-05T09:47:47;101157.88;;;2.42;100.00
52625;BME280;38519;52.540;13.410;2022-12-05T09:50:20;101148.19;;;2.55;100.00
52625;BME280;38519;52.540;13.410;2022-12-05T09:55:50;101154.94;;;2.39;100.00
52625;BME280;38519;52.540;13.410;2022-12-05T10:00:47;101144.88;;;2.33;100.00
52625;BME280;38519;52.540;13.410;2022-12-05T10:06:20;101147.22;;;2.39;100.00
52625;BME280;38519;52.540;13.410;2022-12-05T10:11:48;101142.47;;;2.35;100.00
52625;BME280;38519;52.540;13.410;2022-12-05T10:14:36;101142.31;;;2.33;100.00
52625;BME280;38519;52.540;13.410;2022-12-05T10:17:25;101134.31;;;2.39;100.00
52625;BME280;38519;52.540;13.410;2022-12-05T10:19:55;101139.09;;;2.43;100.00
52625;BME280;38519;52.540;13.410;2022-12-05T10:22:29;101131.53;;;2.45;100.00
52625;BME280;38519;52.540;13.410;2022-12-05T10:25:02;101137.22;;;2.49;100.00
52625;BME280;38519;52.540;13.410;2022-12-05T10:27:50;101136.50;;;2.43;100.00
52625;BME280;38519;52.540;13.410;2022-12-05T10:30:22;101142.53;;;2.51;100.00
52625;BME280;38519;52.540;13.410;2022-12-05T10:32:59;101144.50;;;2.53;100.00
52625;BME280;38519;52.540;13.410;2022-12-05T10:38:08;101141.28;;;2.47;100.00
52625;BME280;38519;52.540;13.410;2022-12-05T10:40:40;101140.50;;;2.48;100.00
52625;BME280;38519;52.540;13.410;2022-12-05T10:43:12;101136.84;;;2.46;100.00
52625;BME280;38519;52.540;13.410;2022-12-05T10:45:43;101135.34;;;2.48;100.00
52625;BME280;38519;52.540;13.410;2022-12-05T10:48:11;101135.31;;;2.55;100.00
52625;BME280;38519;52.540;13.410;2022-12-05T10:50:39;101125.34;;;2.59;100.00
52625;BME280;38519;52.540;13.410;2022-12-05T10:53:07;101123.66;;;2.59;100.00
52625;BME280;38519;52.540;13.410;2022-12-05T10:55:42;101136.06;;;2.54;100.00
52625;BME280;38519;52.540;13.410;2022-12-05T10:58:12;101141.16;;;2.62;100.00
52625;BME280;38519;52.540;13.410;2022-12-05T11:00:40;101144.28;;;2.59;100.00
52625;BME280;38519;52.540;13.410;2022-12-05T11:03:31;101137.41;;;2.67;100.00
52625;BME280;38519;52.540;13.410;2022-12-05T11:06:30;101136.00;;;2.62;100.00
52625;BME280;38519;52.540;13.410;2022-12-05T11:09:04;101130.34;;;2.57;100.00
52625;BME280;38519;52.540;13.410;2022-12-05T11:11:38;101131.16;;;2.65;100.00
52625;BME280;38519;52.540;13.410;2022-12-05T11:14:21;101133.44;;;2.62;100.00
52625;BME280;38519;52.540;13.410;2022-12-05T11:16:58;101125.84;;;2.63;100.00
52625;BME280;38519;52.540;13.410;2022-12-05T11:19:30;101129.38;;;2.57;100.00
52625;BME280;38519;52.540;13.410;2022-12-05T11:21:57;101133.59;;;2.63;100.00
52625;BME280;38519;52.540;13.410;2022-12-05T11:24:28;101125.56;;;2.53;100.00
52625;BME280;38519;52.540;13.410;2022-12-05T11:26:58;101127.25;;;2.52;100.00
52625;BME280;38519;52.540;13.410;2022-12-05T11:29:35;101122.50;;;2.64;100.00
52625;BME280;38519;52.540;13.410;2022-12-05T11:32:03;101124.53;;;2.67;100.00
52625;BME280;38519;52.540;13.410;2022-12-05T11:34:34;101117.69;;;2.67;100.00
52625;BME280;38519;52.540;13.410;2022-12-05T11:37:26;101118.25;;;2.65;100.00
52625;BME280;38519;52.540;13.410;2022-12-05T11:39:53;101119.38;;;2.67;100.00
52625;BME280;38519;52.540;13.410;2022-12-05T11:43:02;101112.22;;;2.80;100.00
52625;BME280;38519;52.540;13.410;2022-12-05T11:46:01;101121.69;;;2.72;100.00
52625;BME280;38519;52.540;13.410;2022-12-05T11:48:33;101124.09;;;2.71;100.00
52625;BME280;38519;52.540;13.410;2022-12-05T11:53:59;101123.94;;;2.69;100.00
52625;BME280;38519;52.540;13.410;2022-12-05T11:56:51;101117.47;;;2.73;100.00
52625;BME280;38519;52.540;13.410;2022-12-05T12:10:53;101101.41;;;2.76;100.00
52625;BME280;38519;52.540;13.410;2022-12-05T12:28:13;101093.16;;;2.71;100.00
52625;BME280;38519;52.540;13.410;2022-12-05T12:33:49;101100.38;;;2.66;100.00
52625;BME280;38519;52.540;13.410;2022-12-05T12:44:39;101083.78;;;2.71;100.00
52625;BME280;38519;52.540;13.410;2022-12-05T12:52:28;101083.28;;;2.67;100.00
52625;BME280;38519;52.540;13.410;2022-12-05T12:57:58;101082.78;;;2.78;100.00
52625;BME280;38519;52.540;13.410;2022-12-05T13:03:18;101075.53;;;2.67;100.00
52625;BME280;38519;52.540;13.410;2022-12-05T13:05:47;101074.59;;;2.66;100.00
52625;BME280;38519;52.540;13.410;2022-12-05T13:08:34;101080.38;;;2.80;100.00
52625;BME280;38519;52.540;13.410;2022-12-05T13:11:06;101077.84;;;2.72;100.00
52625;BME280;38519;52.540;13.410;2022-12-05T13:13:35;101079.34;;;2.70;100.00
52625;BME280;38519;52.540;13.410;2022-12-05T13:16:04;101079.19;;;2.69;100.00
52625;BME280;38519;52.540;13.410;2022-12-05T13:18:32;101077.34;;;2.68;100.00
52625;BME280;38519;52.540;13.410;2022-12-05T13:21:02;101080.78;;;2.76;100.00
52625;BME280;38519;52.540;13.410;2022-12-05T13:23:44;101081.03;;;2.70;100.00
52625;BME280;38519;52.540;13.410;2022-12-05T13:26:11;101081.72;;;2.76;100.00
52625;BME280;38519;52.540;13.410;2022-12-05T13:31:13;101076.78;;;2.70;100.00
52625;BME280;38519;52.540;13.410;2022-12-05T13:33:49;101069.72;;;2.77;100.00
52625;BME280;38519;52.540;13.410;2022-12-05T13:36:20;101075.22;;;2.80;100.00
52625;BME280;38519;52.540;13.410;2022-12-05T13:41:59;101082.94;;;2.80;100.00
52625;BME280;38519;52.540;13.410;2022-12-05T13:44:39;101088.84;;;2.79;100.00
52625;BME280;38519;52.540;13.410;2022-12-05T13:49:47;101074.28;;;2.79;100.00
52625;BME280;38519;52.540;13.410;2022-12-05T13:52:22;101072.31;;;2.77;100.00
52625;BME280;38519;52.540;13.410;2022-12-05T13:57:48;101078.38;;;2.77;100.00
52625;BME280;38519;52.540;13.410;2022-12-05T14:07:56;101083.19;;;2.74;100.00
52625;BME280;38519;52.540;13.410;2022-12-05T14:12:56;101093.84;;;2.77;100.00
52625;BME280;38519;52.540;13.410;2022-12-05T14:15:43;101094.19;;;2.80;100.00
52625;BME280;38519;52.540;13.410;2022-12-05T14:20:57;101081.72;;;2.76;100.00
52625;BME280;38519;52.540;13.410;2022-12-05T14:32:39;101087.50;;;2.82;100.00
52625;BME280;38519;52.540;13.410;2022-12-05T14:35:12;101078.88;;;2.82;100.00
52625;BME280;38519;52.540;13.410;2022-12-05T14:38:03;101076.53;;;2.92;100.00
52625;BME280;38519;52.540;13.410;2022-12-05T14:40:36;101076.19;;;3.05;100.00
52625;BME280;38519;52.540;13.410;2022-12-05T14:43:26;101080.63;;;2.90;100.00
52625;BME280;38519;52.540;13.410;2022-12-05T14:50:45;101076.06;;;2.87;100.00
52625;BME280;38519;52.540;13.410;2022-12-05T14:58:30;101081.38;;;2.89;100.00
52625;BME280;38519;52.540;13.410;2022-12-05T15:00:57;101076.38;;;2.90;100.00
52625;BME280;38519;52.540;13.410;2022-12-05T15:03:32;101075.78;;;2.93;100.00
52625;BME280;38519;52.540;13.410;2022-12-05T15:06:03;101068.56;;;2.98;100.00
52625;BME280;38519;52.540;13.410;2022-12-05T15:08:33;101064.75;;;2.94;100.00
52625;BME280;38519;52.540;13.410;2022-12-05T15:11:05;101063.97;;;2.95;100.00
52625;BME280;38519;52.540;13.410;2022-12-05T15:13:31;101063.72;;;3.01;100.00
52625;BME280;38519;52.540;13.410;2022-12-05T15:16:05;101065.25;;;2.99;100.00
52625;BME280;38519;52.540;13.410;2022-12-05T15:18:43;101071.53;;;2.94;100.00
52625;BME280;38519;52.540;13.410;2022-12-05T15:21:35;101076.28;;;2.98;100.00
52625;BME280;38519;52.540;13.410;2022-12-05T15:24:11;101076.53;;;3.08;100.00
52625;BME280;38519;52.540;13.410;2022-12-05T15:26:40;101085.78;;;3.06;100.00
52625;BME280;38519;52.540;13.410;2022-12-05T15:29:35;101088.53;;;3.07;100.00
52625;BME280;38519;52.540;13.410;2022-12-05T15:32:05;101084.78;;;3.13;100.00
52625;BME280;38519;52.540;13.410;2022-12-05T15:34:59;101083.53;;;3.09;100.00
52625;BME280;38519;52.540;13.410;2022-12-05T15:40:13;101089.38;;;2.99;100.00